Time;durP1;ratioP1;P1;durP2;ratioP2;P2;SDS_P1;SDS_P2;PMS_P1;PMS_P2;Temp;Humidity;BMP_temperature;BMP_pressure;BME280_temperature;BME280_humidity;BME280_pressure;Samples;Min_cycle;Max_cycle;Signal;HPM_P1;HPM_P2
2023/03/27 00:00:55;;;;;;;;;;;5.70;99.90;;;;;;5026461;28;19921;-72
2023/03/27 00:03:22;;;;;;;;;;;5.70;99.90;;;;;;5026278;28;19953;-72
2023/03/27 00:05:58;;;;;;;;;;;5.70;99.90;;;;;;5026158;28;19964;-72
2023/03/27 00:08:25;;;;;;;;;;;5.70;99.90;;;;;;5034140;28;19928;-72
2023/03/27 00:10:52;;;;;;;;;;;5.70;99.90;;;;;;5037510;28;19936;-72
2023/03/27 00:13:19;;;;;;;;;;;5.70;99.90;;;;;;5046020;28;19927;-72
2023/03/27 00:15:46;;;;;;;;;;;5.70;99.90;;;;;;5045843;28;20149;-73
2023/03/27 00:18:12;;;;;;;;;;;5.80;99.90;;;;;;5045970;28;20123;-72
2023/03/27 00:20:39;;;;;;;;;;;5.70;99.90;;;;;;5045832;28;19921;-73
2023/03/27 00:23:11;;;;;;;;;;;5.80;99.90;;;;;;5044131;28;19928;-72
2023/03/27 00:25:39;;;;;;;;;;;5.70;99.90;;;;;;5037711;28;19921;-73
2023/03/27 00:28:07;;;;;;;;;;;5.70;99.90;;;;;;5045737;28;19928;-72
2023/03/27 00:30:34;;;;;;;;;;;5.70;99.90;;;;;;5044587;28;19996;-72
2023/03/27 00:33:00;;;;;;;;;;;5.70;99.90;;;;;;5025709;28;19921;-73
2023/03/27 00:35:28;;;;;;;;;;;5.60;99.90;;;;;;5025461;28;19929;-72
2023/03/27 00:37:57;;;;;;;;;;;5.70;99.90;;;;;;5022310;28;19963;-73
2023/03/27 00:40:26;;;;;;;;;;;5.70;99.90;;;;;;5030112;28;19928;-73
2023/03/27 00:42:56;;;;;;;;;;;5.60;99.90;;;;;;5005988;28;19949;-72
2023/03/27 00:45:27;;;;;;;;;;;5.70;99.90;;;;;;5004855;28;19944;-72
2023/03/27 00:47:56;;;;;;;;;;;5.70;99.90;;;;;;5016342;28;19929;-73
2023/03/27 00:50:26;;;;;;;;;;;5.70;99.90;;;;;;5024810;28;20292;-72
2023/03/27 00:52:55;;;;;;;;;;;5.70;99.90;;;;;;5025273;28;19953;-73
2023/03/27 00:55:22;;;;;;;;;;;5.70;99.90;;;;;;5033173;28;19927;-73
2023/03/27 00:57:53;;;;;;;;;;;5.70;99.90;;;;;;5025157;28;20112;-72
2023/03/27 01:00:20;;;;;;;;;;;5.70;99.90;;;;;;5025493;28;19989;-72
2023/03/27 01:02:49;;;;;;;;;;;5.70;99.90;;;;;;5024727;28;20221;-72
2023/03/27 01:05:17;;;;;;;;;;;5.70;99.90;;;;;;5025094;28;19929;-72
2023/03/27 01:07:45;;;;;;;;;;;5.60;99.90;;;;;;5024649;28;19929;-72
2023/03/27 01:10:12;;;;;;;;;;;5.60;99.90;;;;;;5033065;28;19921;-72
2023/03/27 01:12:44;;;;;;;;;;;5.60;99.90;;;;;;5042593;28;19984;-72
2023/03/27 01:15:19;;;;;;;;;;;5.50;99.90;;;;;;5044822;28;19928;-71
2023/03/27 01:17:53;;;;;;;;;;;5.40;99.90;;;;;;5025514;28;19980;-72
2023/03/27 01:20:33;;;;;;;;;;;5.60;99.90;;;;;;5025071;28;19922;-72
2023/03/27 01:23:08;;;;;;;;;;;5.50;99.90;;;;;;5022101;28;19921;-73
2023/03/27 01:25:49;;;;;;;;;;;5.40;99.90;;;;;;5031534;28;19921;-73
2023/03/27 01:28:27;;;;;;;;;;;5.40;99.90;;;;;;5044330;28;19996;-73
2023/03/27 01:30:58;;;;;;;;;;;5.40;99.90;;;;;;5044398;28;19921;-72
2023/03/27 01:33:39;;;;;;;;;;;5.30;99.90;;;;;;5037020;28;20209;-72
2023/03/27 01:36:23;;;;;;;;;;;5.30;99.90;;;;;;5026417;28;19972;-73
2023/03/27 01:39:09;;;;;;;;;;;5.30;99.90;;;;;;5024696;28;20258;-72
2023/03/27 01:41:40;;;;;;;;;;;5.20;99.90;;;;;;5024437;28;19925;-72
2023/03/27 01:44:11;;;;;;;;;;;5.20;99.90;;;;;;5024369;28;19949;-72
2023/03/27 01:46:47;;;;;;;;;;;5.10;99.90;;;;;;5021065;28;19953;-72
2023/03/27 01:49:16;;;;;;;;;;;5.10;99.90;;;;;;5016627;28;19922;-72
2023/03/27 01:51:45;;;;;;;;;;;5.10;99.90;;;;;;5024463;28;20208;-72
2023/03/27 01:54:16;;;;;;;;;;;5.00;99.90;;;;;;5024197;28;20268;-72
2023/03/27 01:56:50;;;;;;;;;;;5.00;99.90;;;;;;5024264;28;19927;-72
2023/03/27 01:59:17;;;;;;;;;;;4.90;99.90;;;;;;5024534;28;20107;-72
2023/03/27 02:01:45;;;;;;;;;;;4.80;99.90;;;;;;5024045;28;19988;-72
2023/03/27 02:04:15;;;;;;;;;;;4.80;99.90;;;;;;5023958;28;19922;-73
2023/03/27 02:06:44;;;;;;;;;;;4.80;99.90;;;;;;5023763;28;19925;-73
2023/03/27 02:09:15;;;;;;;;;;;4.80;99.90;;;;;;5024263;28;19921;-72
2023/03/27 02:11:46;;;;;;;;;;;4.70;99.90;;;;;;5024131;28;20283;-72
2023/03/27 02:14:14;;;;;;;;;;;4.70;99.90;;;;;;5024080;28;19984;-72
2023/03/27 02:16:44;;;;;;;;;;;4.60;99.90;;;;;;5023663;28;19927;-73
2023/03/27 02:19:13;;;;;;;;;;;4.60;99.90;;;;;;5024297;28;19961;-72
2023/03/27 02:21:39;;;;;;;;;;;4.60;99.90;;;;;;5023974;28;19927;-72
2023/03/27 02:24:07;;;;;;;;;;;4.50;99.90;;;;;;5024060;28;19940;-72
2023/03/27 02:26:35;;;;;;;;;;;4.50;99.90;;;;;;5023632;28;20271;-72
2023/03/27 02:29:10;;;;;;;;;;;4.50;99.90;;;;;;5023786;28;19961;-72
2023/03/27 02:31:43;;;;;;;;;;;4.50;99.90;;;;;;5024234;28;19922;-72
2023/03/27 02:34:30;;;;;;;;;;;4.40;99.90;;;;;;5013440;28;19922;-72
2023/03/27 02:37:00;;;;;;;;;;;4.30;99.90;;;;;;5004128;28;20094;-72
2023/03/27 02:39:32;;;;;;;;;;;4.30;99.90;;;;;;5004165;28;20088;-72
2023/03/27 02:42:02;;;;;;;;;;;4.30;99.90;;;;;;5004381;28;19921;-72
2023/03/27 02:44:50;;;;;;;;;;;4.20;99.90;;;;;;5018666;28;20250;-73
2023/03/27 02:47:19;;;;;;;;;;;4.20;99.90;;;;;;5027380;28;19921;-72
2023/03/27 02:49:48;;;;;;;;;;;4.20;99.90;;;;;;5027952;28;19921;-72
2023/03/27 02:52:18;;;;;;;;;;;4.10;99.90;;;;;;5027541;28;20267;-72
2023/03/27 02:54:48;;;;;;;;;;;4.00;99.90;;;;;;5027617;28;19988;-73
2023/03/27 02:57:19;;;;;;;;;;;4.00;99.90;;;;;;5027224;28;20124;-72
2023/03/27 02:59:49;;;;;;;;;;;3.90;99.90;;;;;;5027777;28;19928;-72
2023/03/27 03:02:18;;;;;;;;;;;3.90;99.90;;;;;;5027299;28;19921;-72
2023/03/27 03:04:47;;;;;;;;;;;3.90;99.90;;;;;;5024545;28;19926;-72
2023/03/27 03:07:14;;;;;;;;;;;3.90;99.90;;;;;;5007669;28;19922;-73
2023/03/27 03:09:41;;;;;;;;;;;3.90;99.90;;;;;;5007574;28;19922;-72
2023/03/27 03:12:08;;;;;;;;;;;3.90;99.90;;;;;;5007854;28;19922;-72
2023/03/27 03:14:38;;;;;;;;;;;3.90;99.90;;;;;;5007797;28;19928;-72
2023/03/27 03:17:05;;;;;;;;;;;3.90;99.90;;;;;;5007512;28;19922;-72
2023/03/27 03:19:32;;;;;;;;;;;3.90;99.90;;;;;;5010126;28;19922;-72
2023/03/27 03:21:59;;;;;;;;;;;3.90;99.90;;;;;;5007633;28;19984;-73
2023/03/27 03:24:26;;;;;;;;;;;3.90;99.90;;;;;;5007606;28;20117;-72
2023/03/27 03:26:53;;;;;;;;;;;3.80;99.90;;;;;;5026961;28;19960;-72
2023/03/27 03:29:19;;;;;;;;;;;3.80;99.90;;;;;;5027095;28;19996;-72
2023/03/27 03:31:48;;;;;;;;;;;3.80;99.90;;;;;;5026609;28;19984;-72
2023/03/27 03:34:15;;;;;;;;;;;3.80;99.90;;;;;;5026946;28;19927;-73
2023/03/27 03:36:43;;;;;;;;;;;3.80;99.90;;;;;;5026650;28;19921;-72
2023/03/27 03:39:11;;;;;;;;;;;3.70;99.90;;;;;;5007109;28;19929;-73
2023/03/27 03:41:37;;;;;;;;;;;3.60;99.90;;;;;;5007127;28;19922;-72
2023/03/27 03:44:04;;;;;;;;;;;3.60;99.90;;;;;;5007173;28;20119;-72
2023/03/27 03:46:31;;;;;;;;;;;3.50;99.90;;;;;;5006880;28;19964;-72
2023/03/27 03:48:59;;;;;;;;;;;3.60;99.90;;;;;;5007356;28;19953;-72
2023/03/27 03:51:25;;;;;;;;;;;3.50;99.90;;;;;;5007145;28;19922;-72
2023/03/27 03:53:52;;;;;;;;;;;3.40;99.90;;;;;;5007114;28;20073;-72
2023/03/27 03:56:19;;;;;;;;;;;3.40;99.90;;;;;;5006587;28;19928;-72
2023/03/27 03:58:46;;;;;;;;;;;3.20;99.90;;;;;;5006991;28;19922;-72
2023/03/27 04:01:13;;;;;;;;;;;3.10;99.90;;;;;;5010107;28;19960;-72
2023/03/27 04:03:40;;;;;;;;;;;3.10;99.90;;;;;;5026027;28;19963;-72
2023/03/27 04:06:09;;;;;;;;;;;3.00;99.90;;;;;;5025988;28;20209;-72
2023/03/27 04:08:36;;;;;;;;;;;3.00;99.90;;;;;;5026410;28;19980;-72
2023/03/27 04:11:03;;;;;;;;;;;3.00;99.90;;;;;;5026397;28;19922;-72
2023/03/27 04:13:30;;;;;;;;;;;3.00;99.90;;;;;;5025921;28;19927;-72
2023/03/27 04:16:00;;;;;;;;;;;2.90;99.90;;;;;;5026072;28;19922;-72
2023/03/27 04:18:29;;;;;;;;;;;2.90;99.90;;;;;;5025953;28;19922;-72
2023/03/27 04:20:57;;;;;;;;;;;2.90;99.90;;;;;;5016460;28;19944;-72
2023/03/27 04:23:29;;;;;;;;;;;2.90;99.90;;;;;;5026185;28;19959;-72
2023/03/27 04:25:58;;;;;;;;;;;2.80;99.90;;;;;;5026006;28;19922;-72
2023/03/27 04:28:25;;;;;;;;;;;2.90;99.90;;;;;;5025534;28;20235;-72
2023/03/27 04:30:52;;;;;;;;;;;2.90;99.90;;;;;;5025795;28;19922;-72
2023/03/27 04:33:19;;;;;;;;;;;2.90;99.90;;;;;;5025898;28;19944;-72
2023/03/27 04:35:46;;;;;;;;;;;2.90;99.90;;;;;;5025700;28;19989;-72
2023/03/27 04:38:13;;;;;;;;;;;2.90;99.90;;;;;;5025882;28;19927;-71
2023/03/27 04:40:45;;;;;;;;;;;2.90;99.90;;;;;;5025619;28;19989;-72
2023/03/27 04:43:11;;;;;;;;;;;2.80;99.90;;;;;;5013912;28;20209;-72
2023/03/27 04:45:40;;;;;;;;;;;2.80;99.90;;;;;;5019990;28;19997;-72
2023/03/27 04:48:07;;;;;;;;;;;2.70;99.90;;;;;;5005740;28;19922;-72
2023/03/27 04:50:35;;;;;;;;;;;2.70;99.90;;;;;;5008589;28;19968;-72
2023/03/27 04:53:02;;;;;;;;;;;2.70;99.90;;;;;;5025342;28;19984;-72
2023/03/27 04:55:29;;;;;;;;;;;2.70;99.90;;;;;;5025944;28;19963;-72
2023/03/27 04:57:58;;;;;;;;;;;2.70;99.90;;;;;;5025286;28;19929;-71
2023/03/27 05:00:26;;;;;;;;;;;2.70;99.90;;;;;;5005868;28;20221;-72
2023/03/27 05:02:56;;;;;;;;;;;2.70;99.90;;;;;;5017114;28;19953;-72
2023/03/27 05:05:23;;;;;;;;;;;2.70;99.90;;;;;;5025200;28;19929;-73
2023/03/27 05:07:50;;;;;;;;;;;2.70;99.90;;;;;;5017373;28;19961;-72
2023/03/27 05:10:17;;;;;;;;;;;2.60;99.90;;;;;;5025079;28;19921;-72
2023/03/27 05:12:44;;;;;;;;;;;2.60;99.90;;;;;;5025039;28;19960;-72
2023/03/27 05:15:12;;;;;;;;;;;2.60;99.90;;;;;;5024332;28;19922;-72
2023/03/27 05:17:40;;;;;;;;;;;2.60;99.90;;;;;;5024797;28;19928;-72
2023/03/27 05:20:09;;;;;;;;;;;2.70;99.90;;;;;;5025177;28;19964;-72
2023/03/27 05:22:36;;;;;;;;;;;2.70;99.90;;;;;;5024950;28;19928;-73
2023/03/27 05:25:05;;;;;;;;;;;2.70;99.90;;;;;;5025024;28;19963;-77
2023/03/27 05:27:32;;;;;;;;;;;2.70;99.90;;;;;;5024933;28;19988;-74
2023/03/27 05:29:58;;;;;;;;;;;2.60;99.90;;;;;;5005240;28;19922;-73
2023/03/27 05:32:44;;;;;;;;;;;2.70;99.90;;;;;;5005286;28;19933;-72
2023/03/27 05:35:11;;;;;;;;;;;2.70;99.90;;;;;;5003668;28;19985;-73
2023/03/27 05:37:37;;;;;;;;;;;2.70;99.90;;;;;;5004477;28;19965;-73
2023/03/27 05:40:05;;;;;;;;;;;2.60;99.90;;;;;;5004385;28;19961;-72
2023/03/27 05:42:32;;;;;;;;;;;2.60;99.90;;;;;;5004552;28;19969;-72
2023/03/27 05:44:59;;;;;;;;;;;2.60;99.90;;;;;;5010210;28;19953;-73
2023/03/27 05:47:25;;;;;;;;;;;2.60;99.90;;;;;;5023734;28;20268;-73
2023/03/27 05:49:53;;;;;;;;;;;2.60;99.90;;;;;;5024128;28;19921;-72
2023/03/27 05:52:22;;;;;;;;;;;2.70;99.90;;;;;;5023289;28;20267;-73
2023/03/27 05:54:48;;;;;;;;;;;2.50;99.90;;;;;;5024163;28;19960;-72
2023/03/27 05:57:15;;;;;;;;;;;2.60;99.90;;;;;;5024186;28;19968;-73
2023/03/27 05:59:41;;;;;;;;;;;2.60;99.90;;;;;;5024424;28;19960;-72
2023/03/27 06:02:09;;;;;;;;;;;2.50;99.90;;;;;;5024460;28;19957;-72
2023/03/27 06:04:36;;;;;;;;;;;2.40;99.90;;;;;;5023774;28;19929;-72
2023/03/27 06:07:04;;;;;;;;;;;2.50;99.90;;;;;;5024112;28;19984;-72
2023/03/27 06:09:31;;;;;;;;;;;2.50;99.90;;;;;;5024363;28;19984;-72
2023/03/27 06:11:58;;;;;;;;;;;2.40;99.90;;;;;;5024357;28;19945;-72
2023/03/27 06:14:24;;;;;;;;;;;2.40;99.90;;;;;;5024243;28;19922;-74
2023/03/27 06:16:51;;;;;;;;;;;2.40;99.90;;;;;;5023669;28;19921;-73
2023/03/27 06:19:23;;;;;;;;;;;2.30;99.90;;;;;;5023164;28;19921;-72
2023/03/27 06:21:50;;;;;;;;;;;2.40;99.90;;;;;;5004027;28;20177;-72
2023/03/27 06:24:18;;;;;;;;;;;2.30;99.90;;;;;;5004194;28;19921;-73
2023/03/27 06:26:45;;;;;;;;;;;2.40;99.90;;;;;;5004303;28;20149;-72
2023/03/27 06:29:12;;;;;;;;;;;2.30;99.90;;;;;;5004115;28;19961;-72
2023/03/27 06:31:38;;;;;;;;;;;2.40;99.90;;;;;;5004449;28;19960;-72
2023/03/27 06:34:05;;;;;;;;;;;2.40;99.90;;;;;;5004571;28;19989;-72
2023/03/27 06:36:32;;;;;;;;;;;2.40;99.90;;;;;;5004103;28;19949;-72
2023/03/27 06:39:02;;;;;;;;;;;2.50;99.90;;;;;;5004197;28;19964;-72
2023/03/27 06:41:37;;;;;;;;;;;2.40;99.90;;;;;;5003334;28;19944;-72
2023/03/27 06:44:04;;;;;;;;;;;2.40;99.90;;;;;;5003968;28;19929;-72
2023/03/27 06:46:31;;;;;;;;;;;2.40;99.90;;;;;;5004010;28;20002;-72
2023/03/27 06:48:57;;;;;;;;;;;2.50;99.90;;;;;;5004263;28;19926;-72
2023/03/27 06:51:25;;;;;;;;;;;2.40;99.90;;;;;;5004424;28;19994;-72
2023/03/27 06:53:52;;;;;;;;;;;2.40;99.90;;;;;;5004200;28;19933;-72
2023/03/27 06:56:19;;;;;;;;;;;2.50;99.90;;;;;;5003904;28;19953;-73
2023/03/27 06:58:47;;;;;;;;;;;2.40;99.90;;;;;;5011645;28;19922;-72
2023/03/27 07:01:13;;;;;;;;;;;2.40;99.90;;;;;;5023862;28;20173;-73
2023/03/27 07:03:40;;;;;;;;;;;2.50;99.90;;;;;;5023695;28;20093;-73
2023/03/27 07:06:07;;;;;;;;;;;2.50;99.90;;;;;;5019610;28;19952;-72
2023/03/27 07:08:33;;;;;;;;;;;2.60;99.90;;;;;;5023499;28;19925;-73
2023/03/27 07:11:03;;;;;;;;;;;2.60;99.90;;;;;;5022918;28;19926;-73
2023/03/27 07:13:30;;;;;;;;;;;2.50;99.90;;;;;;5022003;28;19922;-73
2023/03/27 07:15:58;;;;;;;;;;;2.60;99.90;;;;;;5003942;28;20009;-73
2023/03/27 07:18:24;;;;;;;;;;;2.50;99.90;;;;;;5003701;28;19921;-73
2023/03/27 07:20:51;;;;;;;;;;;2.50;99.90;;;;;;5004133;28;19989;-73
2023/03/27 07:23:18;;;;;;;;;;;2.50;99.90;;;;;;5015972;28;19948;-72
2023/03/27 07:25:44;;;;;;;;;;;2.40;99.90;;;;;;5023503;28;19996;-73
2023/03/27 07:28:13;;;;;;;;;;;2.50;99.90;;;;;;5023947;28;19921;-73
2023/03/27 07:30:48;;;;;;;;;;;2.50;99.90;;;;;;5023041;28;20082;-73
2023/03/27 07:33:18;;;;;;;;;;;2.50;99.90;;;;;;5025849;28;19989;-73
2023/03/27 07:35:45;;;;;;;;;;;2.50;99.90;;;;;;5027003;28;19921;-74
2023/03/27 07:38:13;;;;;;;;;;;2.60;99.90;;;;;;5026923;28;19981;-73
2023/03/27 07:40:42;;;;;;;;;;;2.60;99.90;;;;;;5011859;28;19928;-73
2023/03/27 07:43:08;;;;;;;;;;;2.50;99.90;;;;;;5007337;28;19964;-72
2023/03/27 07:45:35;;;;;;;;;;;2.50;99.90;;;;;;5007258;28;20185;-73
2023/03/27 07:48:05;;;;;;;;;;;2.50;99.90;;;;;;5006790;28;19922;-73
2023/03/27 07:50:34;;;;;;;;;;;2.50;99.90;;;;;;5006838;28;19968;-72
2023/03/27 07:53:01;;;;;;;;;;;2.50;99.90;;;;;;5006646;28;19922;-72
2023/03/27 07:55:29;;;;;;;;;;;2.60;99.90;;;;;;5007087;28;19984;-73
2023/03/27 07:57:55;;;;;;;;;;;2.60;99.90;;;;;;5006527;28;19964;-73
2023/03/27 08:00:23;;;;;;;;;;;2.70;99.90;;;;;;5025826;28;19992;-73
2023/03/27 08:02:50;;;;;;;;;;;2.70;99.90;;;;;;5025973;28;20176;-73
2023/03/27 08:05:17;;;;;;;;;;;2.70;99.90;;;;;;5026480;28;19921;-73
2023/03/27 08:07:46;;;;;;;;;;;2.70;99.90;;;;;;5026207;28;20141;-73
2023/03/27 08:10:13;;;;;;;;;;;2.80;99.90;;;;;;5026217;28;19996;-73
2023/03/27 08:12:39;;;;;;;;;;;2.90;99.90;;;;;;5026050;28;19928;-73
2023/03/27 08:15:08;;;;;;;;;;;2.90;99.90;;;;;;5009299;28;19923;-72
2023/03/27 08:17:35;;;;;;;;;;;3.00;99.90;;;;;;5006452;28;19921;-73
2023/03/27 08:20:08;;;;;;;;;;;3.00;99.90;;;;;;5006415;28;20240;-73
2023/03/27 08:22:35;;;;;;;;;;;3.10;99.90;;;;;;5005204;28;20217;-73
2023/03/27 08:25:05;;;;;;;;;;;3.20;99.90;;;;;;5006531;28;19922;-73
2023/03/27 08:27:32;;;;;;;;;;;3.20;99.90;;;;;;5006248;28;20180;-73
2023/03/27 08:30:03;;;;;;;;;;;3.20;99.90;;;;;;5005100;28;19933;-73
2023/03/27 08:32:30;;;;;;;;;;;3.30;99.90;;;;;;5006423;28;19997;-72
2023/03/27 08:34:57;;;;;;;;;;;3.30;99.90;;;;;;5006291;28;20113;-73
2023/03/27 08:37:23;;;;;;;;;;;3.30;99.90;;;;;;5006025;28;19997;-73
2023/03/27 08:39:50;;;;;;;;;;;3.30;99.90;;;;;;5006252;28;19984;-73
2023/03/27 08:42:20;;;;;;;;;;;3.30;99.90;;;;;;5005243;28;20176;-73
2023/03/27 08:44:47;;;;;;;;;;;3.30;99.90;;;;;;5005585;28;19961;-73
2023/03/27 08:47:16;;;;;;;;;;;3.40;99.90;;;;;;5005077;28;20205;-73
2023/03/27 08:49:46;;;;;;;;;;;3.40;99.90;;;;;;5006038;28;19922;-73
2023/03/27 08:52:14;;;;;;;;;;;3.50;99.90;;;;;;5005507;28;19985;-73
2023/03/27 08:54:42;;;;;;;;;;;3.50;99.90;;;;;;5005543;28;20213;-74
2023/03/27 08:57:14;;;;;;;;;;;3.60;99.90;;;;;;5005710;28;20120;-73
2023/03/27 08:59:43;;;;;;;;;;;3.60;99.90;;;;;;5005498;28;20121;-72
2023/03/27 09:02:15;;;;;;;;;;;3.70;99.90;;;;;;5011505;28;19928;-73
2023/03/27 09:04:44;;;;;;;;;;;3.80;99.90;;;;;;5024884;28;19921;-73
2023/03/27 09:07:11;;;;;;;;;;;3.90;99.90;;;;;;5025253;28;20153;-73
2023/03/27 09:09:51;;;;;;;;;;;4.00;99.90;;;;;;5025004;28;20205;-73
2023/03/27 09:12:23;;;;;;;;;;;4.20;99.90;;;;;;5025057;28;19921;-73
2023/03/27 09:14:54;;;;;;;;;;;4.40;99.90;;;;;;5025122;28;19928;-73
2023/03/27 09:17:23;;;;;;;;;;;4.50;99.90;;;;;;5024978;28;19950;-73
2023/03/27 09:19:52;;;;;;;;;;;4.60;99.90;;;;;;5025115;28;20120;-74
2023/03/27 09:22:22;;;;;;;;;;;4.60;99.90;;;;;;5024095;28;20115;-73
2023/03/27 09:24:50;;;;;;;;;;;4.50;99.90;;;;;;5024880;28;19928;-73
2023/03/27 09:27:19;;;;;;;;;;;4.50;99.90;;;;;;5024800;28;19990;-73
2023/03/27 09:29:49;;;;;;;;;;;4.40;99.90;;;;;;5024476;28;19921;-73
2023/03/27 09:32:33;;;;;;;;;;;4.30;99.90;;;;;;5024615;28;19921;-73
2023/03/27 09:35:01;;;;;;;;;;;4.30;99.90;;;;;;5024607;28;19921;-73
2023/03/27 09:37:28;;;;;;;;;;;4.30;99.90;;;;;;5024655;28;19960;-72
2023/03/27 09:39:55;;;;;;;;;;;4.30;99.90;;;;;;5024583;28;20004;-73
2023/03/27 09:42:23;;;;;;;;;;;4.40;99.90;;;;;;5024418;28;20128;-71
2023/03/27 09:44:54;;;;;;;;;;;4.50;99.90;;;;;;5025474;28;20276;-74
2023/03/27 09:47:25;;;;;;;;;;;4.50;99.90;;;;;;5023893;28;19963;-74
2023/03/27 09:53:06;;;;;;;;;;;4.60;99.90;;;;;;5024494;28;20011;-75
2023/03/27 09:55:35;;;;;;;;;;;4.70;99.90;;;;;;5021678;28;19922;-74
2023/03/27 09:58:11;;;;;;;;;;;4.80;99.90;;;;;;5021196;28;19925;-75
2023/03/27 10:00:38;;;;;;;;;;;4.90;99.90;;;;;;5027094;28;19925;-74
2023/03/27 10:03:07;;;;;;;;;;;4.90;99.90;;;;;;5024642;28;20366;-75
2023/03/27 10:05:34;;;;;;;;;;;4.90;99.90;;;;;;5026786;28;19921;-73
2023/03/27 10:08:20;;;;;;;;;;;4.90;99.90;;;;;;5025206;28;19927;-71
2023/03/27 10:10:54;;;;;;;;;;;4.90;99.90;;;;;;5027372;28;20232;-74
2023/03/27 10:13:23;;;;;;;;;;;4.90;99.90;;;;;;5026032;28;19953;-70
2023/03/27 10:15:50;;;;;;;;;;;5.00;99.90;;;;;;5023622;28;19921;-74
2023/03/27 10:18:22;;;;;;;;;;;5.00;99.90;;;;;;5023478;28;19921;-74
2023/03/27 10:20:50;;;;;;;;;;;5.00;99.90;;;;;;5025706;28;19959;-74
2023/03/27 10:23:23;;;;;;;;;;;5.00;99.90;;;;;;5023116;28;19921;-72
2023/03/27 10:25:52;;;;;;;;;;;4.90;99.90;;;;;;5024156;28;19958;-72
2023/03/27 10:28:21;;;;;;;;;;;4.90;99.90;;;;;;5024516;28;19993;-72
2023/03/27 10:30:57;;;;;;;;;;;5.00;99.90;;;;;;5023858;28;20004;-72
2023/03/27 10:33:30;;;;;;;;;;;5.10;99.90;;;;;;5023838;28;19996;-72
2023/03/27 10:35:57;;;;;;;;;;;5.20;99.90;;;;;;5023681;28;19949;-72
2023/03/27 10:38:25;;;;;;;;;;;5.10;99.90;;;;;;5023843;28;19921;-70
2023/03/27 10:40:54;;;;;;;;;;;5.00;99.90;;;;;;5023689;28;19964;-72
2023/03/27 10:43:27;;;;;;;;;;;5.20;99.90;;;;;;5023675;28;19926;-72
2023/03/27 10:45:55;;;;;;;;;;;5.30;99.90;;;;;;5022708;28;19928;-72
2023/03/27 10:48:29;;;;;;;;;;;5.50;99.90;;;;;;5022606;28;19925;-72
2023/03/27 10:50:58;;;;;;;;;;;5.80;99.90;;;;;;5022939;28;19952;-72
2023/03/27 10:53:31;;;;;;;;;;;5.90;99.90;;;;;;5023893;28;20171;-72
2023/03/27 10:56:02;;;;;;;;;;;5.90;99.90;;;;;;5023387;28;19928;-73
2023/03/27 10:58:32;;;;;;;;;;;5.80;99.90;;;;;;5023546;28;19949;-72
2023/03/27 11:01:01;;;;;;;;;;;5.80;99.90;;;;;;5015581;28;19953;-73
2023/03/27 11:03:31;;;;;;;;;;;5.50;99.90;;;;;;5038047;22;19996;-71
2023/03/27 11:06:00;;;;;;;;;;;5.60;99.90;;;;;;5016125;28;19921;-72
2023/03/27 11:08:30;;;;;;;;;;;5.80;99.90;;;;;;5027092;28;19921;-72
2023/03/27 11:10:59;;;;;;;;;;;5.80;99.90;;;;;;5027030;28;19928;-72
2023/03/27 11:13:29;;;;;;;;;;;6.00;99.90;;;;;;5027032;28;19945;-72
2023/03/27 11:16:01;;;;;;;;;;;6.10;99.90;;;;;;5026906;28;19996;-72
2023/03/27 11:18:29;;;;;;;;;;;6.30;99.90;;;;;;5026959;28;19922;-72
2023/03/27 11:20:58;;;;;;;;;;;6.40;99.90;;;;;;5026912;28;19925;-71
2023/03/27 11:23:28;;;;;;;;;;;6.50;99.90;;;;;;5007528;28;19989;-72
2023/03/27 11:25:58;;;;;;;;;;;6.70;99.90;;;;;;5007366;28;19922;-72
2023/03/27 11:28:32;;;;;;;;;;;6.80;99.90;;;;;;5007286;28;19928;-72
2023/03/27 11:31:04;;;;;;;;;;;6.80;99.90;;;;;;5006626;28;19922;-71
2023/03/27 11:33:38;;;;;;;;;;;6.70;99.90;;;;;;5007586;28;19988;-72
2023/03/27 11:36:14;;;;;;;;;;;6.40;99.90;;;;;;5026511;28;19929;-71
2023/03/27 11:38:43;;;;;;;;;;;6.20;99.90;;;;;;5026457;28;19956;-71
2023/03/27 11:41:11;;;;;;;;;;;6.00;99.90;;;;;;5026687;28;19993;-72
2023/03/27 11:43:39;;;;;;;;;;;5.80;99.90;;;;;;5026330;28;19921;-71
2023/03/27 11:46:13;;;;;;;;;;;5.60;99.90;;;;;;5026478;28;19984;-71
2023/03/27 11:49:00;;;;;;;;;;;5.20;99.90;;;;;;5026554;28;20168;-71
2023/03/27 11:51:32;;;;;;;;;;;4.90;99.90;;;;;;5024921;28;20239;-77
2023/03/27 11:54:06;;;;;;;;;;;4.30;99.90;;;;;;5018045;28;19943;-70
2023/03/27 11:56:42;;;;;;;;;;;4.00;99.90;;;;;;5025602;28;19921;-69
2023/03/27 11:59:18;;;;;;;;;;;3.90;99.90;;;;;;5025954;28;20166;-71
2023/03/27 12:01:47;;;;;;;;;;;3.90;99.90;;;;;;5026195;28;19988;-71
2023/03/27 12:04:28;;;;;;;;;;;4.10;99.90;;;;;;5026292;28;19989;-71
2023/03/27 12:06:59;;;;;;;;;;;4.40;99.90;;;;;;5025650;28;19927;-71
2023/03/27 12:09:36;;;;;;;;;;;4.70;99.90;;;;;;5026048;28;19931;-70
2023/03/27 12:12:13;;;;;;;;;;;4.90;99.90;;;;;;5025223;28;19993;-70
2023/03/27 12:14:47;;;;;;;;;;;4.90;99.90;;;;;;5025909;28;19922;-70
2023/03/27 12:17:28;;;;;;;;;;;5.00;99.90;;;;;;5024783;28;20264;-70
2023/03/27 12:20:11;;;;;;;;;;;5.00;99.90;;;;;;5024674;28;19930;-70
2023/03/27 12:22:43;;;;;;;;;;;4.90;99.90;;;;;;5025653;28;19928;-70
2023/03/27 12:25:26;;;;;;;;;;;4.90;99.90;;;;;;5025661;28;19928;-70
2023/03/27 12:27:56;;;;;;;;;;;5.10;99.90;;;;;;5025439;28;20209;-70
2023/03/27 12:30:32;;;;;;;;;;;5.40;99.90;;;;;;5024734;28;19921;-70
2023/03/27 12:33:05;;;;;;;;;;;5.70;99.90;;;;;;5025507;28;19993;-70
2023/03/27 12:35:35;;;;;;;;;;;6.00;99.90;;;;;;5025675;28;19960;-70
2023/03/27 12:38:04;;;;;;;;;;;6.30;99.90;;;;;;5025481;28;19921;-71
2023/03/27 12:40:31;;;;;;;;;;;6.70;99.90;;;;;;5024061;28;19921;-71
2023/03/27 12:43:06;;;;;;;;;;;6.90;99.90;;;;;;5025170;28;19988;-72
2023/03/27 12:45:34;;;;;;;;;;;6.90;99.90;;;;;;5025128;28;19921;-71
2023/03/27 12:48:05;;;;;;;;;;;6.90;99.90;;;;;;5025285;28;20000;-70
2023/03/27 12:50:33;;;;;;;;;;;7.00;99.90;;;;;;5025149;28;19922;-71
2023/03/27 12:53:03;;;;;;;;;;;7.30;99.90;;;;;;5025231;28;20120;-70
2023/03/27 12:55:31;;;;;;;;;;;7.50;99.90;;;;;;5025170;28;19921;-70
2023/03/27 12:57:58;;;;;;;;;;;7.60;99.90;;;;;;5024808;28;19944;-70
2023/03/27 13:00:27;;;;;;;;;;;7.40;99.90;;;;;;5024795;28;19928;-71
2023/03/27 13:03:08;;;;;;;;;;;7.10;99.90;;;;;;5024307;28;20085;-71
2023/03/27 13:05:45;;;;;;;;;;;6.90;99.90;;;;;;5023415;28;19922;-70
2023/03/27 13:08:31;;;;;;;;;;;6.40;99.90;;;;;;5023923;28;19928;-70
2023/03/27 13:10:58;;;;;;;;;;;5.60;99.90;;;;;;5023709;28;19967;-70
2023/03/27 13:13:36;;;;;;;;;;;4.90;99.90;;;;;;5023675;28;19928;-70
2023/03/27 13:16:12;;;;;;;;;;;4.50;99.90;;;;;;5023509;28;19945;-70
2023/03/27 13:18:49;;;;;;;;;;;4.20;99.90;;;;;;5022820;28;19921;-70
2023/03/27 13:21:22;;;;;;;;;;;4.00;99.90;;;;;;5023952;28;20156;-70
2023/03/27 13:23:54;;;;;;;;;;;3.70;99.90;;;;;;5023602;28;19984;-71
2023/03/27 13:26:27;;;;;;;;;;;3.70;99.90;;;;;;5023729;28;19928;-70
2023/03/27 13:28:55;;;;;;;;;;;3.90;99.90;;;;;;5023180;28;19921;-70
2023/03/27 13:31:41;;;;;;;;;;;4.50;99.90;;;;;;5023628;28;19930;-70
2023/03/27 13:34:13;;;;;;;;;;;4.90;99.90;;;;;;5023662;28;19921;-71
2023/03/27 13:36:46;;;;;;;;;;;4.90;99.90;;;;;;5023588;28;19930;-70
2023/03/27 13:39:21;;;;;;;;;;;5.00;99.90;;;;;;5023547;28;19963;-70
2023/03/27 13:42:01;;;;;;;;;;;5.30;99.90;;;;;;5023637;28;19928;-71
2023/03/27 13:44:34;;;;;;;;;;;5.70;99.90;;;;;;5023357;28;19956;-70
2023/03/27 13:47:08;;;;;;;;;;;6.00;99.90;;;;;;5022613;28;19921;-71
2023/03/27 13:49:45;;;;;;;;;;;6.10;99.90;;;;;;5023250;28;19922;-71
2023/03/27 13:52:22;;;;;;;;;;;6.00;99.90;;;;;;5023339;28;19921;-70
2023/03/27 13:54:58;;;;;;;;;;;5.80;99.90;;;;;;5023333;28;19989;-70
2023/03/27 13:57:30;;;;;;;;;;;5.50;99.90;;;;;;5022908;28;20162;-70
2023/03/27 14:00:20;;;;;;;;;;;5.20;99.90;;;;;;5023023;28;19921;-70
2023/03/27 14:03:00;;;;;;;;;;;4.90;99.90;;;;;;4943614;28;1989481;-70
2023/03/27 14:05:35;;;;;;;;;;;4.80;99.90;;;;;;5023966;28;19957;-70
2023/03/27 14:08:19;;;;;;;;;;;5.10;99.90;;;;;;5023889;28;19949;-71
2023/03/27 14:10:53;;;;;;;;;;;5.60;99.90;;;;;;5018729;28;19921;-70
2023/03/27 14:13:25;;;;;;;;;;;6.20;99.90;;;;;;5023508;28;20008;-70
2023/03/27 14:16:12;;;;;;;;;;;6.70;99.90;;;;;;5023476;28;19931;-70
2023/03/27 14:18:54;;;;;;;;;;;7.20;99.90;;;;;;5020746;28;19921;-70
2023/03/27 14:21:22;;;;;;;;;;;7.60;99.90;;;;;;5022658;28;19922;-71
2023/03/27 14:23:52;;;;;;;;;;;7.80;99.90;;;;;;5023724;28;19943;-70
2023/03/27 14:26:23;;;;;;;;;;;7.90;99.90;;;;;;5023387;28;19928;-70
2023/03/27 14:28:53;;;;;;;;;;;7.80;99.90;;;;;;5023270;28;20153;-71
2023/03/27 14:31:20;;;;;;;;;;;7.80;99.90;;;;;;5014096;28;19929;-70
2023/03/27 14:33:50;;;;;;;;;;;7.80;99.90;;;;;;5023346;28;19922;-71
2023/03/27 14:36:18;;;;;;;;;;;8.00;99.90;;;;;;5023328;28;19921;-69
2023/03/27 14:38:46;;;;;;;;;;;8.20;99.90;;;;;;5023402;28;19921;-70
2023/03/27 14:41:20;;;;;;;;;;;8.30;99.90;;;;;;5024510;28;19997;-70
2023/03/27 14:43:47;;;;;;;;;;;8.20;99.90;;;;;;5027694;28;19965;-70
2023/03/27 14:46:14;;;;;;;;;;;8.20;99.90;;;;;;5026195;28;19922;-70
2023/03/27 14:48:43;;;;;;;;;;;8.40;99.90;;;;;;5027392;28;19984;-70
2023/03/27 14:51:12;;;;;;;;;;;8.70;99.90;;;;;;5027295;28;19921;-70